Time;durP1;ratioP1;P1;durP2;ratioP2;P2;SDS_P1;SDS_P2;PMS_P1;PMS_P2;Temp;Humidity;BMP_temperature;BMP_pressure;BME280_temperature;BME280_humidity;BME280_pressure;Samples;Min_cycle;Max_cycle;Signal;HPM_P1;HPM_P2
2024/04/18 00:02:12;;;;;;;14.47;8.70;;;4.20;99.90;;;;;;5385723;26;20249;-81
2024/04/18 00:04:40;;;;;;;13.33;9.10;;;4.20;99.90;;;;;;5385699;26;20613;-82
2024/04/18 00:07:06;;;;;;;14.20;9.77;;;4.30;99.90;;;;;;5380535;26;20246;-81
2024/04/18 00:09:35;;;;;;;15.13;9.73;;;4.30;99.90;;;;;;5391256;26;20364;-82
2024/04/18 00:12:04;;;;;;;15.03;9.07;;;4.10;99.90;;;;;;5387455;26;20249;-83
2024/04/18 00:14:33;;;;;;;9.70;6.10;;;4.10;99.90;;;;;;5386029;26;20692;-83
2024/04/18 00:16:59;;;;;;;9.27;6.43;;;3.50;99.90;;;;;;5384793;26;20245;-81
2024/04/18 00:19:27;;;;;;;10.60;7.07;;;3.40;99.90;;;;;;5386119;26;20295;-82
2024/04/18 00:21:53;;;;;;;11.33;8.00;;;3.40;99.90;;;;;;5387496;26;20241;-82
2024/04/18 00:24:22;;;;;;;11.27;6.93;;;3.50;99.90;;;;;;5387326;26;20951;-83
2024/04/18 00:26:48;;;;;;;11.43;8.70;;;3.40;99.90;;;;;;5382599;26;20249;-82
2024/04/18 00:29:19;;;;;;;15.97;8.97;;;3.40;99.90;;;;;;5380971;26;20280;-81
2024/04/18 00:31:45;;;;;;;12.63;8.20;;;3.60;99.90;;;;;;5386390;26;20253;-80
2024/04/18 00:34:14;;;;;;;14.87;8.87;;;3.40;99.90;;;;;;5387212;26;20300;-81
2024/04/18 00:36:42;;;;;;;14.63;9.40;;;3.70;99.90;;;;;;5390721;26;20268;-80
2024/04/18 00:39:08;;;;;;;14.20;8.93;;;3.80;99.90;;;;;;5384523;26;20332;-80
2024/04/18 00:41:37;;;;;;;13.63;9.50;;;3.90;99.90;;;;;;5372648;26;20251;-81
2024/04/18 00:44:03;;;;;;;14.20;9.33;;;3.60;99.90;;;;;;5387317;26;20253;-80
2024/04/18 00:46:34;;;;;;;14.10;9.40;;;3.50;99.90;;;;;;5384462;26;20292;-81
2024/04/18 00:49:00;;;;;;;12.37;9.40;;;3.40;99.90;;;;;;5373628;26;20665;-82
2024/04/18 00:51:29;;;;;;;12.83;8.30;;;3.40;99.90;;;;;;5393221;26;20288;-80
2024/04/18 00:53:56;;;;;;;13.33;8.33;;;3.40;99.90;;;;;;5385623;26;20238;-81
2024/04/18 00:56:24;;;;;;;14.43;8.30;;;3.30;99.90;;;;;;5394729;26;20336;-82
2024/04/18 00:58:50;;;;;;;12.13;7.77;;;3.20;99.90;;;;;;5386523;26;20254;-83
2024/04/18 01:01:20;;;;;;;11.70;8.63;;;3.40;99.90;;;;;;5383328;26;20245;-81
2024/04/18 01:03:49;;;;;;;11.57;8.27;;;3.30;99.90;;;;;;5386416;26;20723;-81
2024/04/18 01:06:18;;;;;;;12.70;8.20;;;3.20;99.90;;;;;;5376449;26;20301;-80
2024/04/18 01:08:44;;;;;;;13.40;8.37;;;3.20;99.90;;;;;;5382423;26;20245;-81
2024/04/18 01:11:12;;;;;;;11.30;7.20;;;3.30;99.90;;;;;;5384363;26;20360;-81
2024/04/18 01:13:39;;;;;;;15.73;8.40;;;3.30;99.90;;;;;;5382358;26;20299;-82
2024/04/18 01:16:08;;;;;;;14.53;8.47;;;3.40;99.90;;;;;;5385813;26;20350;-82
2024/04/18 01:18:34;;;;;;;12.40;7.50;;;3.50;99.90;;;;;;5382628;26;20258;-81
2024/04/18 01:21:06;;;;;;;12.03;7.40;;;3.80;99.90;;;;;;5380812;26;20285;-81
2024/04/18 01:23:32;;;;;;;12.13;8.03;;;3.40;99.90;;;;;;5379306;26;20280;-81
2024/04/18 01:26:00;;;;;;;11.67;7.87;;;3.50;99.90;;;;;;5386636;26;20249;-82
2024/04/18 01:28:29;;;;;;;11.53;8.00;;;3.70;99.90;;;;;;5384272;26;20300;-80
2024/04/18 01:30:58;;;;;;;12.30;7.40;;;3.50;99.90;;;;;;5386051;26;20245;-82
2024/04/18 01:33:23;;;;;;;10.17;7.47;;;3.40;99.90;;;;;;5384490;26;20770;-82
2024/04/18 01:35:52;;;;;;;12.00;7.53;;;3.50;99.90;;;;;;5387463;26;20254;-80
2024/04/18 01:38:18;;;;;;;12.43;7.10;;;3.50;99.90;;;;;;5385261;26;20253;-79
2024/04/18 01:40:46;;;;;;;9.30;6.90;;;3.60;99.90;;;;;;5383897;26;20273;-80
2024/04/18 01:43:12;;;;;;;11.43;7.30;;;4.00;99.90;;;;;;5374904;26;20846;-82
2024/04/18 01:45:44;;;;;;;9.43;6.53;;;3.70;99.90;;;;;;5375944;26;20287;-81
2024/04/18 01:48:10;;;;;;;11.27;7.53;;;3.60;99.90;;;;;;5384103;26;20601;-80
2024/04/18 01:50:38;;;;;;;10.53;7.07;;;3.70;99.90;;;;;;5380602;26;20242;-81
2024/04/18 01:53:04;;;;;;;11.13;7.40;;;3.70;99.90;;;;;;5376358;26;20238;-80
2024/04/18 01:55:33;;;;;;;11.17;7.40;;;3.70;99.90;;;;;;5394838;26;20279;-80
2024/04/18 01:57:59;;;;;;;12.00;7.40;;;3.70;99.90;;;;;;5390001;26;20261;-83
2024/04/18 02:00:27;;;;;;;9.73;6.87;;;3.70;99.90;;;;;;5379311;26;20289;-81
2024/04/18 02:02:56;;;;;;;11.83;6.80;;;3.80;99.90;;;;;;5386883;26;20824;-83
2024/04/18 02:05:24;;;;;;;9.60;6.93;;;3.80;99.90;;;;;;5388808;26;20249;-81
2024/04/18 02:07:50;;;;;;;9.43;6.87;;;3.80;99.90;;;;;;5389789;26;20257;-81
2024/04/18 02:10:19;;;;;;;10.70;7.13;;;3.90;99.90;;;;;;5385107;26;20292;-80
2024/04/18 02:12:45;;;;;;;11.60;7.03;;;3.90;99.90;;;;;;5389725;26;20280;-81
2024/04/18 02:15:13;;;;;;;9.37;7.20;;;4.00;99.90;;;;;;5380004;26;20732;-81
2024/04/18 02:17:40;;;;;;;11.43;7.27;;;3.90;99.90;;;;;;5388216;26;20253;-82
2024/04/18 02:20:12;;;;;;;11.23;7.23;;;3.60;99.90;;;;;;5384405;26;20246;-81
2024/04/18 02:22:38;;;;;;;11.83;7.20;;;4.00;99.90;;;;;;5388980;26;20346;-81
2024/04/18 02:25:08;;;;;;;14.13;8.43;;;3.90;99.90;;;;;;5389136;26;20249;-81
2024/04/18 02:27:34;;;;;;;13.37;8.50;;;3.90;99.90;;;;;;5379383;26;20249;-81
2024/04/18 02:30:04;;;;;;;15.17;9.20;;;3.90;99.90;;;;;;5390014;26;20319;-80
2024/04/18 02:32:30;;;;;;;15.03;10.27;;;3.90;99.90;;;;;;5389285;26;20323;-83
2024/04/18 02:34:59;;;;;;;13.87;8.77;;;3.80;99.90;;;;;;5381986;26;20324;-83
2024/04/18 02:37:28;;;;;;;12.63;8.97;;;4.00;99.90;;;;;;5384287;26;20253;-81
2024/04/18 02:39:56;;;;;;;15.97;8.67;;;3.80;99.90;;;;;;5388407;26;20584;-83
2024/04/18 02:42:24;;;;;;;12.10;7.87;;;3.80;99.90;;;;;;5387912;26;20301;-81
2024/04/18 02:44:52;;;;;;;11.27;8.60;;;3.70;99.90;;;;;;5388522;26;20253;-81
2024/04/18 02:47:18;;;;;;;11.90;8.43;;;3.60;99.90;;;;;;5382127;26;20253;-80
2024/04/18 02:49:47;;;;;;;14.07;9.20;;;3.60;99.90;;;;;;5389319;26;20277;-82
2024/04/18 02:52:13;;;;;;;15.10;9.40;;;3.50;99.90;;;;;;5388767;26;20245;-81
2024/04/18 02:54:44;;;;;;;14.20;9.03;;;3.70;99.90;;;;;;5388754;26;20317;-82
2024/04/18 02:57:10;;;;;;;11.50;8.77;;;3.50;99.90;;;;;;5388579;26;20257;-82
2024/04/18 02:59:38;;;;;;;9.03;6.60;;;3.40;99.90;;;;;;5401088;26;20682;-81
2024/04/18 03:02:05;;;;;;;12.90;7.90;;;3.30;99.90;;;;;;5388456;26;20259;-83
2024/04/18 03:04:34;;;;;;;13.80;8.47;;;3.30;99.90;;;;;;5387962;26;20628;-81
2024/04/18 03:07:00;;;;;;;13.00;8.10;;;3.30;99.90;;;;;;5388835;26;20254;-83
2024/04/18 03:09:29;;;;;;;11.00;7.33;;;3.30;99.90;;;;;;5389511;26;20238;-82
2024/04/18 03:11:58;;;;;;;14.33;9.33;;;3.30;99.90;;;;;;5388741;26;20233;-82
2024/04/18 03:14:26;;;;;;;12.43;9.43;;;3.30;99.90;;;;;;5388724;26;20250;-83
2024/04/18 03:16:52;;;;;;;12.63;8.97;;;3.40;99.90;;;;;;5389411;26;20272;-82
2024/04/18 03:19:21;;;;;;;13.33;8.00;;;3.40;99.90;;;;;;5384350;26;20331;-80
2024/04/18 03:21:47;;;;;;;11.07;7.70;;;3.40;99.90;;;;;;5388952;26;20245;-81
2024/04/18 03:24:19;;;;;;;13.13;8.37;;;3.50;99.90;;;;;;5388152;26;20625;-83
2024/04/18 03:26:46;;;;;;;11.20;8.30;;;3.50;99.90;;;;;;5379138;26;20284;-83
2024/04/18 03:29:18;;;;;;;13.07;8.40;;;3.50;99.90;;;;;;5380376;26;20351;-82
2024/04/18 03:31:47;;;;;;;14.37;9.27;;;3.90;99.90;;;;;;5363820;26;20290;-83
2024/04/18 03:34:16;;;;;;;16.63;9.83;;;3.60;99.90;;;;;;5386883;26;20253;-83
2024/04/18 03:36:46;;;;;;;12.83;9.27;;;3.70;99.90;;;;;;5375658;26;20238;-82
2024/04/18 03:39:15;;;;;;;15.37;9.93;;;3.70;99.90;;;;;;5376567;26;20332;-81
2024/04/18 03:41:43;;;;;;;14.63;10.20;;;3.80;99.90;;;;;;5375780;26;20254;-80
2024/04/18 03:44:12;;;;;;;15.03;10.03;;;4.00;99.90;;;;;;5386824;26;20728;-79
2024/04/18 03:46:43;;;;;;;14.90;9.20;;;4.10;99.90;;;;;;5383198;26;20242;-78
2024/04/18 03:49:09;;;;;;;13.17;8.70;;;3.80;99.90;;;;;;5387072;26;20288;-80
2024/04/18 03:51:38;;;;;;;12.00;8.23;;;3.80;99.90;;;;;;5379002;26;20249;-78
2024/04/18 03:54:04;;;;;;;14.33;9.37;;;3.90;99.90;;;;;;5381320;26;20241;-80
2024/04/18 03:56:33;;;;;;;14.10;9.13;;;3.90;99.90;;;;;;5382485;26;20591;-79
2024/04/18 03:58:59;;;;;;;14.20;8.60;;;4.00;99.90;;;;;;5383789;26;20663;-80
2024/04/18 04:01:29;;;;;;;12.83;8.10;;;3.80;99.90;;;;;;5384841;26;20319;-81
2024/04/18 04:03:58;;;;;;;13.63;8.07;;;3.80;99.90;;;;;;5378469;26;20752;-80
2024/04/18 04:06:26;;;;;;;12.93;8.07;;;3.90;99.90;;;;;;5387066;26;20253;-80
2024/04/18 04:08:52;;;;;;;14.17;9.07;;;3.80;99.90;;;;;;5385074;26;20873;-78
2024/04/18 04:11:21;;;;;;;15.37;8.37;;;3.80;99.90;;;;;;5371556;26;20258;-80
2024/04/18 04:13:47;;;;;;;12.43;8.27;;;3.70;99.90;;;;;;5371187;26;20254;-77
2024/04/18 04:16:15;;;;;;;12.93;7.87;;;3.70;99.90;;;;;;5372663;26;20249;-78
2024/04/18 04:18:41;;;;;;;11.63;8.87;;;3.70;99.90;;;;;;5382193;26;20245;-80
2024/04/18 04:21:12;;;;;;;13.77;8.63;;;3.70;99.90;;;;;;5371295;26;20284;-80
2024/04/18 04:23:41;;;;;;;15.27;8.33;;;3.70;99.90;;;;;;5381953;26;20285;-80
2024/04/18 04:26:07;;;;;;;11.97;8.83;;;3.80;99.90;;;;;;5381322;26;20253;-80
2024/04/18 04:28:35;;;;;;;13.70;8.73;;;3.80;99.90;;;;;;5380856;26;20276;-80
2024/04/18 04:31:01;;;;;;;15.57;9.27;;;3.80;99.90;;;;;;5383146;26;20375;-83
2024/04/18 04:33:31;;;;;;;14.50;10.30;;;3.90;99.90;;;;;;5384043;26;20257;-77
2024/04/18 04:35:57;;;;;;;13.60;9.07;;;3.80;99.90;;;;;;5377271;26;20284;-79
2024/04/18 04:38:28;;;;;;;14.10;9.03;;;3.90;99.90;;;;;;5377303;26;20262;-78
2024/04/18 04:40:54;;;;;;;13.97;9.20;;;3.90;99.90;;;;;;5372755;26;20242;-77
2024/04/18 04:43:23;;;;;;;14.80;9.27;;;4.00;99.90;;;;;;5371739;26;20295;-78
2024/04/18 04:45:53;;;;;;;14.50;9.63;;;3.90;99.90;;;;;;5377040;26;20253;-80
2024/04/18 04:48:22;;;;;;;15.00;8.27;;;4.00;99.90;;;;;;5362002;26;20289;-79
2024/04/18 04:50:56;;;;;;;14.90;9.20;;;4.00;99.90;;;;;;5377523;26;20253;-78
2024/04/18 04:53:27;;;;;;;12.70;8.53;;;3.90;99.90;;;;;;5375528;26;20368;-80
2024/04/18 04:55:54;;;;;;;15.00;9.00;;;4.00;99.90;;;;;;5372042;26;20246;-80
2024/04/18 04:58:23;;;;;;;12.83;8.77;;;3.90;99.90;;;;;;5380326;26;20265;-81
2024/04/18 05:00:49;;;;;;;13.23;9.17;;;3.90;99.90;;;;;;5376946;26;20618;-79
2024/04/18 05:03:17;;;;;;;14.17;8.30;;;4.00;99.90;;;;;;5380855;26;20251;-80
2024/04/18 05:05:44;;;;;;;13.87;9.37;;;4.10;99.90;;;;;;5377219;26;20292;-79
2024/04/18 05:08:12;;;;;;;12.67;8.80;;;4.00;99.90;;;;;;5375028;26;20261;-80
2024/04/18 05:10:43;;;;;;;12.47;8.37;;;4.10;99.90;;;;;;5383375;26;20249;-78
2024/04/18 05:13:11;;;;;;;13.03;7.33;;;4.10;99.90;;;;;;5383932;26;20242;-78
2024/04/18 05:15:39;;;;;;;10.17;7.60;;;4.20;99.90;;;;;;5376825;26;20249;-79
2024/04/18 05:18:09;;;;;;;13.63;8.10;;;4.20;99.90;;;;;;5377074;26;20250;-79
2024/04/18 05:20:36;;;;;;;12.27;8.13;;;4.20;99.90;;;;;;5376324;26;20255;-80
2024/04/18 05:23:06;;;;;;;11.03;7.87;;;4.30;99.90;;;;;;5379486;26;20253;-81
2024/04/18 05:25:32;;;;;;;11.20;7.97;;;4.40;99.90;;;;;;5380617;26;20291;-82
2024/04/18 05:28:10;;;;;;;13.47;7.60;;;4.50;99.90;;;;;;5382425;26;20253;-80
2024/04/18 05:33:24;;;;;;;12.77;7.90;;;4.80;99.90;;;;;;5389012;26;20860;-80
2024/04/18 05:35:53;;;;;;;11.73;7.87;;;5.00;99.90;;;;;;5371876;26;20328;-82
2024/04/18 05:38:22;;;;;;;11.97;7.87;;;5.20;99.90;;;;;;5378574;26;20801;-82
2024/04/18 05:40:51;;;;;;;12.57;8.17;;;5.90;99.90;;;;;;5365677;26;20243;-80
2024/04/18 05:43:22;;;;;;;11.73;7.60;;;6.70;99.90;;;;;;5370732;26;20344;-81
2024/04/18 05:45:52;;;;;;;9.03;6.90;;;7.50;99.90;;;;;;5368383;26;20245;-79
2024/04/18 05:48:21;;;;;;;7.37;6.07;;;6.90;99.90;;;;;;5372222;26;20305;-78
2024/04/18 05:50:49;;;;;;;9.67;6.50;;;6.30;99.90;;;;;;5370630;26;20288;-80
2024/04/18 05:53:19;;;;;;;9.23;6.40;;;5.90;99.90;;;;;;5374215;26;20329;-79
2024/04/18 05:55:47;;;;;;;10.03;6.63;;;5.80;99.90;;;;;;5371775;26;20728;-78
2024/04/18 05:58:16;;;;;;;10.50;7.33;;;5.60;99.90;;;;;;5375248;26;20250;-79
2024/04/18 06:00:48;;;;;;;8.80;6.80;;;5.60;99.90;;;;;;5383682;26;20292;-77
2024/04/18 06:03:16;;;;;;;9.73;7.17;;;5.50;99.90;;;;;;5377273;26;20247;-83
2024/04/18 06:05:45;;;;;;;8.57;6.33;;;5.60;99.90;;;;;;5379736;26;20245;-82
2024/04/18 06:08:11;;;;;;;10.13;7.40;;;5.70;99.90;;;;;;5381235;26;20296;-80
2024/04/18 06:10:39;;;;;;;10.67;7.43;;;5.80;99.90;;;;;;5383886;26;20253;-79
2024/04/18 06:13:09;;;;;;;11.57;7.90;;;6.10;99.90;;;;;;5382868;26;20284;-82
2024/04/18 06:15:37;;;;;;;12.93;7.60;;;6.20;99.90;;;;;;5387183;26;20621;-80
2024/04/18 06:18:09;;;;;;;10.87;8.10;;;6.50;99.90;;;;;;5386699;26;20354;-78
2024/04/18 06:20:44;;;;;;;12.73;8.40;;;7.10;99.90;;;;;;5382685;26;20568;-83
2024/04/18 06:23:13;;;;;;;10.13;8.00;;;8.20;1.00;;;;;;5383082;26;20245;-83
2024/04/18 06:25:42;;;;;;;10.37;7.90;;;8.70;1.00;;;;;;5380343;26;20237;-83
2024/04/18 06:28:14;;;;;;;10.03;7.47;;;9.50;1.00;;;;;;5380717;26;20249;-83
2024/04/18 06:30:43;;;;;;;10.80;7.53;;;11.00;99.90;;;;;;5381214;26;20246;-83
2024/04/18 06:33:14;;;;;;;10.20;7.20;;;10.70;1.00;;;;;;5382205;26;20241;-84
2024/04/18 06:35:44;;;;;;;9.27;7.33;;;8.90;1.00;;;;;;5367792;26;20292;-81
2024/04/18 06:38:12;;;;;;;11.10;7.10;;;8.50;99.90;;;;;;5357938;26;20250;-84
2024/04/18 06:40:41;;;;;;;8.83;6.70;;;8.00;1.00;;;;;;5358150;26;20288;-84
2024/04/18 06:43:09;;;;;;;8.53;6.27;;;7.70;99.90;;;;;;5359680;26;20281;-84
2024/04/18 06:45:38;;;;;;;10.67;7.40;;;7.70;99.90;;;;;;5363013;26;20786;-85
2024/04/18 06:48:09;;;;;;;11.20;7.33;;;7.70;99.90;;;;;;5360606;26;20293;-83
2024/04/18 06:50:41;;;;;;;12.90;7.93;;;7.60;99.90;;;;;;5364355;26;20246;-84
2024/04/18 06:53:09;;;;;;;13.67;7.60;;;7.50;99.90;;;;;;5363669;26;20285;-84
2024/04/18 06:55:38;;;;;;;12.77;7.47;;;7.50;99.90;;;;;;5369145;26;20245;-83
2024/04/18 06:58:07;;;;;;;12.90;7.83;;;7.60;99.90;;;;;;5369964;26;20262;-84
2024/04/18 07:00:37;;;;;;;12.87;8.63;;;8.20;99.90;;;;;;5368749;26;20290;-83
2024/04/18 07:03:07;;;;;;;12.00;7.67;;;8.00;1.00;;;;;;5367909;26;20309;-84
2024/04/18 07:05:33;;;;;;;12.77;8.33;;;7.70;99.90;;;;;;5371106;26;20242;-83
2024/04/18 07:08:04;;;;;;;13.87;8.33;;;7.80;1.00;;;;;;5371875;26;20288;-83
2024/04/18 07:10:33;;;;;;;13.07;8.50;;;7.80;1.00;;;;;;5374556;26;20296;-83
2024/04/18 07:13:01;;;;;;;14.07;8.77;;;8.20;99.90;;;;;;5375051;26;20249;-83
2024/04/18 07:15:30;;;;;;;13.77;8.83;;;8.30;99.90;;;;;;5376493;26;22208;-83
2024/04/18 07:17:59;;;;;;;12.87;8.70;;;8.60;1.00;;;;;;5379144;26;20242;-83
2024/04/18 07:20:27;;;;;;;14.57;9.57;;;9.10;1.00;;;;;;5378860;26;20246;-83
2024/04/18 07:22:56;;;;;;;15.60;8.83;;;9.30;1.00;;;;;;5380511;26;20364;-83
2024/04/18 07:25:27;;;;;;;13.30;8.60;;;9.60;99.90;;;;;;5380015;26;20350;-83
2024/04/18 07:27:56;;;;;;;12.07;8.30;;;9.60;1.00;;;;;;5380288;26;20296;-83
2024/04/18 07:30:24;;;;;;;13.53;8.87;;;9.00;99.90;;;;;;5378928;26;20249;-84
2024/04/18 07:32:53;;;;;;;12.80;8.60;;;9.10;99.90;;;;;;5380175;26;20249;-84
2024/04/18 07:35:23;;;;;;;13.00;8.77;;;9.20;1.00;;;;;;5381246;26;20246;-83
2024/04/18 07:37:52;;;;;;;14.97;8.17;;;9.20;1.00;;;;;;5354105;26;20725;-84
2024/04/18 07:40:21;;;;;;;13.93;9.10;;;9.40;1.00;;;;;;5354028;26;20348;-83
2024/04/18 07:42:53;;;;;;;16.83;9.20;;;9.50;1.00;;;;;;5354291;26;20247;-84
2024/04/18 07:45:22;;;;;;;19.13;10.30;;;9.70;1.00;;;;;;5355780;26;20243;-84
2024/04/18 07:47:51;;;;;;;16.00;8.83;;;9.50;1.00;;;;;;5358194;26;20277;-84
2024/04/18 07:50:19;;;;;;;12.50;7.80;;;9.60;99.90;;;;;;5357413;26;20289;-84
2024/04/18 07:52:48;;;;;;;10.73;7.10;;;9.30;99.90;;;;;;5358632;26;20793;-84
2024/04/18 07:55:17;;;;;;;9.83;6.40;;;9.20;99.90;;;;;;5356231;26;20282;-83
2024/04/18 07:57:47;;;;;;;12.03;7.20;;;9.10;99.90;;;;;;5360002;26;20723;-83
2024/04/18 08:00:18;;;;;;;9.50;6.80;;;9.10;99.90;;;;;;5360586;26;20254;-83
2024/04/18 08:02:47;;;;;;;11.30;6.40;;;8.80;99.90;;;;;;5368963;26;20242;-83
2024/04/18 08:05:16;;;;;;;8.87;5.90;;;9.10;99.90;;;;;;5367881;26;20243;-81
2024/04/18 08:07:44;;;;;;;9.80;5.13;;;9.20;99.90;;;;;;5370490;26;20242;-81
2024/04/18 08:10:13;;;;;;;7.07;5.63;;;9.20;2.50;;;;;;5359225;26;20261;-81
2024/04/18 08:12:42;;;;;;;10.43;6.77;;;9.10;1.00;;;;;;5366987;26;20247;-81
2024/04/18 08:15:10;;;;;;;9.17;6.53;;;9.10;1.00;;;;;;5369174;26;20245;-81
2024/04/18 08:17:41;;;;;;;7.37;5.90;;;9.50;17.30;;;;;;5373158;26;20249;-80
2024/04/18 08:20:10;;;;;;;7.30;5.77;;;9.20;1.00;;;;;;5375140;26;20253;-79
2024/04/18 08:22:39;;;;;;;7.63;5.63;;;9.20;1.00;;;;;;5383244;26;20246;-79
2024/04/18 08:25:08;;;;;;;8.13;5.47;;;9.70;1.00;;;;;;5375605;26;20741;-78
2024/04/18 08:27:38;;;;;;;6.67;5.63;;;9.90;1.00;;;;;;5372937;26;20748;-79
2024/04/18 08:30:07;;;;;;;8.07;6.10;;;9.90;1.00;;;;;;5387131;26;20249;-79
2024/04/18 08:32:33;;;;;;;9.40;6.27;;;10.00;1.00;;;;;;5385371;26;20249;-79
2024/04/18 08:35:05;;;;;;;9.03;6.10;;;10.40;1.00;;;;;;5387191;26;20300;-79
2024/04/18 08:37:33;;;;;;;6.70;6.00;;;10.20;1.00;;;;;;5362290;26;20243;-78
2024/04/18 08:40:02;;;;;;;8.83;7.40;;;10.50;1.00;;;;;;5368538;26;20254;-79
2024/04/18 08:42:31;;;;;;;6.20;5.10;;;11.00;1.00;;;;;;5357541;26;20298;-81
2024/04/18 08:45:00;;;;;;;7.37;4.90;;;10.70;99.90;;;;;;5356450;26;20254;-79
2024/04/18 08:47:31;;;;;;;6.37;5.10;;;10.20;99.90;;;;;;5372108;26;20329;-79
2024/04/18 08:49:59;;;;;;;5.90;4.70;;;10.20;99.90;;;;;;5359983;26;20736;-79
2024/04/18 08:52:35;;;;;;;5.57;4.50;;;10.30;99.90;;;;;;5364293;26;20756;-78
2024/04/18 08:55:03;;;;;;;6.63;4.57;;;10.20;99.90;;;;;;5363099;26;20281;-78
2024/04/18 08:57:35;;;;;;;6.00;4.70;;;10.80;99.90;;;;;;5374585;26;20275;-79
2024/04/18 09:00:05;;;;;;;8.57;4.37;;;11.20;99.90;;;;;;5365846;26;20276;-78
2024/04/18 09:02:34;;;;;;;5.83;4.73;;;11.30;1.00;;;;;;5367250;26;20243;-79
2024/04/18 09:05:03;;;;;;;7.80;5.53;;;11.50;55.60;;;;;;5376680;26;20253;-79
2024/04/18 09:07:35;;;;;;;6.97;5.47;;;12.10;25.90;;;;;;5368500;26;20332;-79
2024/04/18 09:10:06;;;;;;;5.50;4.80;;;11.80;1.00;;;;;;5379456;26;20246;-82
2024/04/18 09:12:34;;;;;;;6.00;4.40;;;12.50;1.00;;;;;;5372673;26;20243;-79
2024/04/18 09:15:03;;;;;;;6.83;5.03;;;12.90;1.00;;;;;;5377597;26;20300;-77
2024/04/18 09:17:32;;;;;;;6.97;4.70;;;13.10;1.00;;;;;;5373754;26;20246;-78
2024/04/18 09:20:00;;;;;;;6.57;4.57;;;12.10;1.00;;;;;;5384088;26;20245;-80
2024/04/18 09:22:29;;;;;;;6.63;3.73;;;11.60;1.00;;;;;;5380543;26;20292;-81
2024/04/18 09:25:01;;;;;;;4.40;4.00;;;12.30;1.00;;;;;;5382057;26;20716;-80
2024/04/18 09:27:29;;;;;;;5.57;4.20;;;12.20;1.00;;;;;;5380600;26;20258;-78
2024/04/18 09:29:55;;;;;;;5.37;4.63;;;12.40;1.00;;;;;;5381469;26;20238;-78
2024/04/18 09:32:25;;;;;;;6.20;4.47;;;12.40;1.00;;;;;;5383300;26;20326;-78
2024/04/18 09:34:58;;;;;;;5.23;4.73;;;11.80;1.00;;;;;;5382862;26;20245;-80
2024/04/18 09:37:29;;;;;;;5.93;5.00;;;11.20;1.00;;;;;;5383033;26;20253;-78
2024/04/18 09:40:02;;;;;;;10.67;5.60;;;11.20;1.00;;;;;;5377227;26;20285;-78
2024/04/18 09:42:40;;;;;;;6.50;5.00;;;11.40;1.00;;;;;;5358271;26;20242;-81
2024/04/18 09:45:14;;;;;;;5.67;4.20;;;11.30;1.00;;;;;;5386510;26;20556;-78
2024/04/18 09:47:45;;;;;;;8.37;4.53;;;12.10;1.00;;;;;;5372398;26;20242;-79
2024/04/18 09:50:16;;;;;;;10.27;6.27;;;11.90;1.00;;;;;;5357139;26;20243;-81
2024/04/18 09:52:48;;;;;;;10.30;5.87;;;11.40;1.00;;;;;;5363194;26;20285;-78
2024/04/18 09:55:23;;;;;;;8.47;5.90;;;11.40;1.00;;;;;;5361439;26;20279;-81
2024/04/18 09:57:53;;;;;;;6.60;5.20;;;11.20;1.00;;;;;;5364203;26;20796;-78
2024/04/18 10:00:24;;;;;;;7.97;5.30;;;11.10;1.00;;;;;;5365703;26;20779;-79
2024/04/18 10:02:53;;;;;;;6.87;4.97;;;11.20;1.00;;;;;;5365593;26;20245;-81
2024/04/18 10:05:22;;;;;;;7.17;5.10;;;11.70;1.00;;;;;;5364800;26;20238;-79
2024/04/18 10:07:52;;;;;;;6.13;4.83;;;12.10;1.00;;;;;;5371694;26;20253;-79
2024/04/18 10:10:24;;;;;;;7.33;5.03;;;12.70;1.00;;;;;;5375406;26;20285;-78
2024/04/18 10:12:53;;;;;;;5.83;4.70;;;13.30;1.00;;;;;;5377989;26;20276;-78
2024/04/18 10:15:23;;;;;;;9.33;4.90;;;14.10;1.00;;;;;;5375053;26;20281;-82
2024/04/18 10:17:52;;;;;;;4.67;4.20;;;13.90;1.00;;;;;;5373804;26;20313;-79
2024/04/18 10:20:21;;;;;;;5.77;4.03;;;13.30;99.90;;;;;;5379255;26;20593;-79
2024/04/18 10:22:58;;;;;;;6.00;4.70;;;12.60;99.90;;;;;;5387412;26;20795;-79
2024/04/18 10:25:29;;;;;;;6.43;4.40;;;12.20;99.90;;;;;;5381292;26;20346;-81
2024/04/18 10:27:58;;;;;;;5.20;3.60;;;12.30;99.90;;;;;;5377702;26;20301;-81
2024/04/18 10:30:28;;;;;;;6.27;4.17;;;12.50;99.90;;;;;;5388801;26;20272;-81
2024/04/18 10:32:57;;;;;;;5.37;4.20;;;13.70;1.00;;;;;;5376617;26;20578;-80
2024/04/18 10:35:28;;;;;;;4.67;3.87;;;13.50;99.90;;;;;;5388146;26;20261;-81
2024/04/18 10:37:57;;;;;;;5.37;3.30;;;12.80;99.90;;;;;;5374108;26;20253;-81
2024/04/18 10:40:28;;;;;;;3.90;3.33;;;12.80;99.90;;;;;;5387717;26;20245;-81
2024/04/18 10:43:12;;;;;;;4.67;3.40;;;13.70;99.90;;;;;;5379378;26;20280;-81
2024/04/18 10:45:40;;;;;;;4.67;3.57;;;14.00;99.90;;;;;;5375756;26;20247;-81
2024/04/18 10:48:09;;;;;;;4.73;3.60;;;13.90;99.90;;;;;;5362621;26;20822;-81
2024/04/18 10:50:35;;;;;;;4.33;3.17;;;13.20;99.90;;;;;;5365938;26;20247;-80
2024/04/18 10:53:05;;;;;;;5.60;3.30;;;13.30;99.90;;;;;;5362521;26;20246;-80
2024/04/18 10:55:37;;;;;;;6.00;3.87;;;13.90;99.90;;;;;;5368870;26;20663;-81
2024/04/18 10:58:06;;;;;;;5.40;3.23;;;14.30;99.90;;;;;;5375012;26;20242;-80
2024/04/18 11:00:35;;;;;;;5.00;3.70;;;13.70;99.90;;;;;;5388268;26;20837;-80
2024/04/18 11:03:04;;;;;;;5.17;4.00;;;13.30;99.90;;;;;;5377028;26;20246;-80
2024/04/18 11:05:32;;;;;;;5.83;3.97;;;13.00;99.90;;;;;;5370596;26;20764;-80
2024/04/18 11:08:01;;;;;;;6.57;4.50;;;12.80;99.90;;;;;;5373848;26;20253;-80
2024/04/18 11:10:30;;;;;;;5.87;4.10;;;12.80;99.90;;;;;;5379104;26;20281;-80
2024/04/18 11:13:02;;;;;;;6.10;3.93;;;12.50;99.90;;;;;;5374466;26;20301;-81
2024/04/18 11:15:31;;;;;;;5.50;4.10;;;12.20;99.90;;;;;;5381857;26;20310;-81
2024/04/18 11:18:04;;;;;;;8.53;5.20;;;12.40;99.90;;;;;;5374371;26;20300;-82
2024/04/18 11:20:33;;;;;;;7.90;4.47;;;12.40;99.90;;;;;;5381148;26;20285;-82
2024/04/18 11:23:01;;;;;;;4.50;3.60;;;12.40;99.90;;;;;;5375188;26;20323;-82
2024/04/18 11:25:30;;;;;;;4.03;3.50;;;12.10;99.90;;;;;;5381259;26;20763;-80
2024/04/18 11:28:06;;;;;;;5.73;3.80;;;12.20;99.90;;;;;;5376464;26;20265;-82
2024/04/18 11:30:34;;;;;;;4.80;3.20;;;13.10;99.90;;;;;;5386654;26;20248;-80
2024/04/18 11:33:03;;;;;;;3.53;2.50;;;13.50;99.90;;;;;;5385224;26;20249;-79
2024/04/18 11:35:32;;;;;;;3.30;2.80;;;13.30;1.00;;;;;;5385490;26;20291;-82
2024/04/18 11:38:02;;;;;;;4.33;2.97;;;13.60;60.50;;;;;;5362596;26;20251;-82
2024/04/18 11:40:32;;;;;;;4.87;3.40;;;13.80;4.70;;;;;;5383710;26;20755;-81
2024/04/18 11:43:03;;;;;;;5.80;3.90;;;13.50;71.00;;;;;;5383568;26;20245;-81
2024/04/18 11:45:32;;;;;;;4.97;3.90;;;13.50;68.20;;;;;;5375811;26;20231;-81
2024/04/18 11:48:00;;;;;;;5.13;3.90;;;13.60;54.80;;;;;;5386964;26;20249;-82
2024/04/18 11:50:29;;;;;;;5.70;3.90;;;14.10;99.90;;;;;;5389639;26;20252;-81
2024/04/18 11:52:55;;;;;;;6.70;4.23;;;13.70;96.00;;;;;;5380808;26;20273;-81
2024/04/18 11:55:24;;;;;;;6.37;4.00;;;13.70;99.90;;;;;;5380805;26;20249;-78
2024/04/18 11:57:53;;;;;;;5.60;4.00;;;13.60;99.20;;;;;;5380519;26;20645;-78
2024/04/18 12:00:25;;;;;;;8.27;5.53;;;13.60;76.80;;;;;;5380385;26;20285;-79
2024/04/18 12:02:53;;;;;;;4.63;3.43;;;13.90;99.90;;;;;;5375023;26;20285;-79
2024/04/18 12:05:22;;;;;;;5.13;3.10;;;14.30;93.60;;;;;;5388495;26;20593;-80
2024/04/18 12:07:50;;;;;;;3.93;3.53;;;14.50;13.10;;;;;;5380161;26;20291;-81
2024/04/18 12:10:19;;;;;;;7.03;4.50;;;15.00;49.30;;;;;;5384546;26;21092;-82
2024/04/18 12:12:48;;;;;;;5.00;3.58;;;15.30;97.20;;;;;;5381484;26;20620;-79
2024/04/18 12:15:16;;;;;;;4.50;3.27;;;14.90;95.40;;;;;;5381424;26;20725;-81
2024/04/18 12:17:47;;;;;;;4.23;3.10;;;15.00;75.20;;;;;;5374010;26;20239;-80
2024/04/18 12:20:18;;;;;;;4.10;2.90;;;14.60;75.00;;;;;;5379611;26;20630;-79
2024/04/18 12:22:47;;;;;;;4.57;2.73;;;14.80;54.70;;;;;;5374182;26;20292;-80
2024/04/18 12:25:16;;;;;;;5.10;2.60;;;15.30;1.00;;;;;;5383741;26;20238;-79
2024/04/18 12:27:45;;;;;;;4.13;2.80;;;14.60;1.00;;;;;;5379109;26;20246;-81
2024/04/18 12:30:11;;;;;;;4.88;3.10;;;14.60;1.00;;;;;;5386048;26;20249;-80
2024/04/18 12:32:40;;;;;;;3.23;2.83;;;14.10;1.00;;;;;;5372134;26;20285;-82
2024/04/18 12:35:11;;;;;;;4.95;3.00;;;14.10;1.00;;;;;;5381441;26;20253;-80
2024/04/18 12:37:40;;;;;;;6.70;3.50;;;13.80;1.00;;;;;;5384273;26;20305;-79
2024/04/18 12:40:09;;;;;;;5.57;3.47;;;13.60;1.00;;;;;;5379841;26;20253;-79
2024/04/18 12:42:38;;;;;;;3.63;3.17;;;13.40;1.00;;;;;;5387367;26;20257;-81
2024/04/18 12:45:07;;;;;;;4.67;3.83;;;13.60;81.10;;;;;;5373756;26;20852;-80
2024/04/18 12:47:36;;;;;;;7.40;4.60;;;13.40;88.20;;;;;;5383098;26;20296;-80
2024/04/18 12:50:05;;;;;;;8.17;4.07;;;13.20;25.40;;;;;;5376935;26;20245;-78
2024/04/18 12:52:36;;;;;;;5.60;3.97;;;13.20;1.00;;;;;;5382703;26;20671;-80
2024/04/18 12:55:05;;;;;;;8.17;4.40;;;13.20;1.00;;;;;;5377049;26;20242;-80
2024/04/18 12:57:33;;;;;;;5.17;4.37;;;13.50;1.00;;;;;;5386333;26;20246;-80
2024/04/18 13:00:02;;;;;;;5.47;4.53;;;13.50;25.70;;;;;;5384577;26;20300;-79
2024/04/18 13:02:31;;;;;;;5.97;4.30;;;13.40;1.00;;;;;;5385896;26;20280;-80